createdAt,value
2023-04-18T00:02:17.540Z,65.02
2023-04-18T00:05:19.871Z,64.98
2023-04-18T00:08:21.742Z,66.07
2023-04-18T00:11:23.568Z,68.16
2023-04-18T00:14:25.364Z,68.39
2023-04-18T00:17:27.803Z,67.96
2023-04-18T00:20:29.790Z,69.38
2023-04-18T00:23:33.544Z,67.97
2023-04-18T00:26:35.519Z,68.57
2023-04-18T00:29:37.380Z,69.54
2023-04-18T00:32:39.259Z,68.96
2023-04-18T00:35:41.132Z,69.72
2023-04-18T00:38:43.166Z,69.71
2023-04-18T00:41:45.051Z,68.64
2023-04-18T00:44:48.022Z,67.11
2023-04-18T00:47:49.883Z,68.19
2023-04-18T00:50:51.868Z,67.99
2023-04-18T00:53:53.733Z,67.13
2023-04-18T00:56:55.685Z,70.49
2023-04-18T00:59:57.583Z,68.78
2023-04-18T01:02:59.690Z,67.22
2023-04-18T01:06:02.142Z,67.64
2023-04-18T01:09:05.627Z,70.33
2023-04-18T01:12:07.506Z,69.42
2023-04-18T01:15:09.414Z,69.85
2023-04-18T01:18:11.766Z,68.16
2023-04-18T01:21:14.729Z,67.07
2023-04-18T01:24:17.059Z,66.01
2023-04-18T01:27:18.931Z,63.01
2023-04-18T01:30:20.869Z,64.90
2023-04-18T01:33:22.919Z,63.96
2023-04-18T01:36:24.800Z,63.53
2023-04-18T01:39:26.611Z,65.06
2023-04-18T01:42:28.620Z,65.47
2023-04-18T01:45:30.559Z,65.40
2023-04-18T01:48:33.320Z,65.69
2023-04-18T01:51:35.216Z,64.45
2023-04-18T01:54:37.122Z,65.78
2023-04-18T01:57:39.033Z,66.12
2023-04-18T02:00:40.964Z,64.11
2023-04-18T02:03:43.210Z,65.96
2023-04-18T02:06:45.296Z,64.84
2023-04-18T02:09:47.135Z,66.66
2023-04-18T02:12:49.042Z,64.90
2023-04-18T02:15:50.904Z,68.02
2023-04-18T02:18:52.827Z,68.29
2023-04-18T02:21:54.674Z,66.79
2023-04-18T02:24:56.570Z,66.39
2023-04-18T02:27:58.635Z,66.17
2023-04-18T02:31:00.812Z,65.71
2023-04-18T02:34:02.654Z,67.13
2023-04-18T02:37:04.909Z,64.69
2023-04-18T02:40:07.292Z,65.71
2023-04-18T02:43:09.278Z,64.57
2023-04-18T02:46:11.218Z,63.93
2023-04-18T02:49:13.094Z,64.18
2023-04-18T02:52:15.064Z,63.89
2023-04-18T02:55:16.995Z,63.86
2023-04-18T02:58:18.864Z,64.66
2023-04-18T03:01:21.094Z,66.16
2023-04-18T03:04:23.039Z,64.01
2023-04-18T03:07:24.954Z,64.41
2023-04-18T03:10:26.813Z,64.11
2023-04-18T03:13:28.630Z,66.23
2023-04-18T03:16:30.709Z,66.11
2023-04-18T03:19:32.648Z,63.50
2023-04-18T03:22:34.580Z,64.92
2023-04-18T03:25:36.380Z,64.29
2023-04-18T03:28:38.277Z,66.38
2023-04-18T03:31:41.488Z,64.43
2023-04-18T03:34:43.504Z,65.87
2023-04-18T03:37:45.359Z,65.04
2023-04-18T03:40:47.218Z,66.30
2023-04-18T03:43:49.067Z,68.30
2023-04-18T03:46:50.907Z,66.57
2023-04-18T03:49:54.425Z,67.37
2023-04-18T03:52:56.297Z,66.99
2023-04-18T03:55:58.165Z,66.00
2023-04-18T03:58:59.992Z,68.87
2023-04-18T04:02:02.119Z,69.04
2023-04-18T04:05:05.111Z,67.13
2023-04-18T04:08:06.972Z,68.83
2023-04-18T04:11:08.920Z,70.09
2023-04-18T04:14:10.773Z,71.75
2023-04-18T04:17:12.629Z,71.38
2023-04-18T04:20:14.538Z,69.62
2023-04-18T04:23:16.647Z,69.08
2023-04-18T04:26:18.533Z,69.82
2023-04-18T04:29:21.608Z,70.10
2023-04-18T04:32:25.149Z,69.08
2023-04-18T04:35:27.330Z,70.77
2023-04-18T04:38:31.223Z,71.01
2023-04-18T04:41:33.218Z,69.72
2023-04-18T04:44:35.616Z,70.98
2023-04-18T04:47:37.596Z,71.84
2023-04-18T04:50:40.025Z,70.05
2023-04-18T04:53:41.913Z,71.79
2023-04-18T04:56:43.755Z,69.91
2023-04-18T04:59:45.757Z,70.16
2023-04-18T05:02:48.145Z,71.29
2023-04-18T05:05:50.199Z,70.60
2023-04-18T05:08:52.034Z,69.25
2023-04-18T05:11:53.928Z,68.79
2023-04-18T05:14:55.766Z,67.88
2023-04-18T05:17:57.977Z,68.30
2023-04-18T05:20:59.862Z,70.77
2023-04-18T05:24:01.745Z,70.38
2023-04-18T05:27:03.638Z,68.22
2023-04-18T05:30:05.915Z,69.64
2023-04-18T05:33:07.857Z,69.41
2023-04-18T05:36:09.787Z,68.17
2023-04-18T05:39:11.845Z,69.43
2023-04-18T05:42:13.683Z,69.03
2023-04-18T05:45:15.756Z,69.09
2023-04-18T05:48:17.654Z,68.93
2023-04-18T05:51:19.546Z,68.49
2023-04-18T05:54:21.608Z,69.19
2023-04-18T05:57:23.466Z,63.86
2023-04-18T06:00:25.324Z,65.02
2023-04-18T06:03:27.506Z,64.23
2023-04-18T06:06:29.581Z,64.30
2023-04-18T06:09:31.637Z,64.73
2023-04-18T06:12:33.546Z,62.77
2023-04-18T06:15:35.747Z,61.93
2023-04-18T06:18:37.737Z,63.12
2023-04-18T06:21:42.018Z,62.54
2023-04-18T06:24:43.912Z,62.49
2023-04-18T06:27:45.820Z,61.46
2023-04-18T06:30:47.700Z,64.54
2023-04-18T06:33:49.581Z,63.37
2023-04-18T06:36:51.729Z,60.62
2023-04-18T06:39:54.267Z,60.42
2023-04-18T06:42:56.415Z,58.72
2023-04-18T06:45:59.066Z,59.33
2023-04-18T06:49:01.336Z,58.01
2023-04-18T06:52:03.342Z,55.48
2023-04-18T06:55:05.430Z,55.19
2023-04-18T06:58:08.604Z,55.08
2023-04-18T07:01:13.056Z,55.40
2023-04-18T07:04:15.637Z,54.48
2023-04-18T07:07:17.866Z,53.91
2023-04-18T07:10:19.709Z,52.30
2023-04-18T07:13:21.643Z,52.63
2023-04-18T07:16:23.712Z,51.81
2023-04-18T07:19:25.852Z,51.49
2023-04-18T07:22:27.674Z,50.92
2023-04-18T07:25:29.599Z,52.75
2023-04-18T07:28:31.958Z,52.15
2023-04-18T07:31:34.349Z,51.18
2023-04-18T07:34:37.558Z,54.79
2023-04-18T07:37:39.563Z,52.42
2023-04-18T07:40:41.527Z,52.72
2023-04-18T07:43:44.976Z,51.65
2023-04-18T07:46:47.048Z,50.68
2023-04-18T07:49:49.300Z,50.77
2023-04-18T07:52:51.212Z,54.04
2023-04-18T07:55:54.632Z,50.69
2023-04-18T07:58:56.562Z,54.22
2023-04-18T08:01:58.534Z,53.46
2023-04-18T08:05:00.683Z,52.74
2023-04-18T08:08:02.992Z,53.47
2023-04-18T08:11:04.954Z,50.40
2023-04-18T08:14:06.908Z,50.51
2023-04-18T08:17:08.869Z,51.26
2023-04-18T08:20:13.166Z,53.04
2023-04-18T08:23:15.936Z,51.60
2023-04-18T08:26:18.288Z,49.98
2023-04-18T08:29:20.250Z,46.18
2023-04-18T08:32:22.390Z,44.79
2023-04-18T08:35:24.290Z,48.06
2023-04-18T08:38:26.307Z,47.88
2023-04-18T08:41:28.763Z,42.93
2023-04-18T08:44:30.848Z,43.08
2023-04-18T08:47:32.898Z,40.65
2023-04-18T08:50:37.439Z,43.66
2023-04-18T08:53:39.609Z,40.37
2023-04-18T08:56:42.459Z,38.19
2023-04-18T08:59:50.359Z,36.80
2023-04-18T09:03:03.014Z,35.80
2023-04-18T09:06:12.797Z,33.78
2023-04-18T09:09:16.860Z,35.00
2023-04-18T09:12:22.818Z,33.90
2023-04-18T09:15:27.309Z,37.32
2023-04-18T09:18:31.033Z,37.28
2023-04-18T09:21:33.005Z,35.07
2023-04-18T09:24:34.905Z,33.59
2023-04-18T09:27:37.521Z,35.10
2023-04-18T09:30:40.528Z,36.13
2023-04-18T09:33:44.992Z,35.29
2023-04-18T09:36:46.924Z,35.91
2023-04-18T09:39:49.987Z,38.39
2023-04-18T09:42:53.533Z,34.15
2023-04-18T09:45:55.582Z,37.75
2023-04-18T09:48:57.608Z,37.64
2023-04-18T09:51:59.587Z,39.75
2023-04-18T09:55:02.361Z,38.73
2023-04-18T09:58:04.555Z,34.96
2023-04-18T10:01:06.500Z,35.01
2023-04-18T10:04:08.555Z,36.44
2023-04-18T10:07:10.633Z,38.05
2023-04-18T10:10:13.054Z,36.61
2023-04-18T10:13:15.149Z,37.78
2023-04-18T10:16:17.224Z,35.73
2023-04-18T10:19:19.708Z,33.21
2023-04-18T10:22:25.394Z,37.02
2023-04-18T10:25:39.812Z,35.52
2023-04-18T10:28:57.487Z,37.33
2023-04-18T10:32:05.282Z,35.67
2023-04-18T10:35:08.508Z,35.40
2023-04-18T10:38:16.842Z,35.16
2023-04-18T10:41:18.759Z,38.21
2023-04-18T10:44:23.067Z,36.48
2023-04-18T10:47:25.822Z,36.03
2023-04-18T10:50:27.829Z,34.50
2023-04-18T10:53:29.730Z,32.19
2023-04-18T10:56:31.738Z,34.93
2023-04-18T10:59:34.232Z,34.82
2023-04-18T11:02:36.278Z,34.26
2023-04-18T11:05:38.334Z,34.24
2023-04-18T11:08:40.765Z,34.47
2023-04-18T11:11:44.254Z,33.10
2023-04-18T11:14:47.475Z,34.54
2023-04-18T11:18:02.212Z,33.12
2023-04-18T11:21:04.345Z,36.20
2023-04-18T11:24:06.540Z,33.95
2023-04-18T11:27:09.364Z,34.51
2023-04-18T11:30:11.848Z,34.62
2023-04-18T11:33:14.644Z,33.64
2023-04-18T11:36:16.579Z,32.30
2023-04-18T11:39:18.815Z,32.83
2023-04-18T11:42:21.250Z,32.57
2023-04-18T11:45:23.163Z,32.46
2023-04-18T11:48:34.011Z,31.92
2023-04-18T11:51:38.404Z,34.74
2023-04-18T11:54:41.117Z,34.55
2023-04-18T11:57:43.310Z,35.66
2023-04-18T12:00:45.744Z,37.22
2023-04-18T12:04:00.937Z,37.02
2023-04-18T12:07:03.644Z,38.33
2023-04-18T12:10:09.538Z,37.78
2023-04-18T12:13:11.436Z,36.48
2023-04-18T12:16:13.648Z,37.02
2023-04-18T12:19:15.682Z,34.87
2023-04-18T12:22:17.892Z,36.87
2023-04-18T12:25:26.709Z,36.75
2023-04-18T12:28:29.447Z,34.15
2023-04-18T12:31:31.839Z,33.57
2023-04-18T12:34:33.742Z,34.20
2023-04-18T12:37:35.952Z,34.84
2023-04-18T12:40:41.143Z,33.53
2023-04-18T12:43:43.051Z,34.47
2023-04-18T12:46:45.024Z,33.65
2023-04-18T12:49:47.302Z,34.00
2023-04-18T12:52:49.492Z,31.99
2023-04-18T12:55:54.168Z,30.42
2023-04-18T12:58:56.557Z,29.33
2023-04-18T13:01:58.593Z,27.50
2023-04-18T13:05:01.045Z,26.67
2023-04-18T13:11:08.211Z,29.27
2023-04-18T13:14:10.201Z,28.63
2023-04-18T13:17:12.178Z,28.54
2023-04-18T13:20:14.327Z,28.15
2023-04-18T13:23:16.165Z,29.05
2023-04-18T13:26:18.052Z,28.41
2023-04-18T13:29:20.146Z,27.73
2023-04-18T13:32:22.380Z,27.74
2023-04-18T13:35:24.487Z,26.02
2023-04-18T13:38:27.560Z,26.64
2023-04-18T13:41:29.502Z,27.81
2023-04-18T13:44:31.671Z,28.53
2023-04-18T13:47:33.911Z,28.52
2023-04-18T13:50:36.036Z,26.63
2023-04-18T13:53:37.943Z,27.17
2023-04-18T13:56:39.816Z,26.37
2023-04-18T13:59:41.710Z,26.18
2023-04-18T14:02:43.815Z,27.27
2023-04-18T14:05:45.846Z,26.82
2023-04-18T14:08:49.154Z,26.67
2023-04-18T14:11:51.407Z,26.57
2023-04-18T14:14:53.399Z,25.92
2023-04-18T14:17:55.379Z,24.74
2023-04-18T14:20:57.336Z,23.90
2023-04-18T14:23:59.190Z,24.75
2023-04-18T14:27:02.431Z,24.68
2023-04-18T14:30:06.745Z,25.32
2023-04-18T14:33:09.896Z,24.99
2023-04-18T14:36:11.837Z,25.52
2023-04-18T14:39:14.327Z,26.38
2023-04-18T14:42:17.573Z,26.69
2023-04-18T14:45:19.687Z,25.76
2023-04-18T14:48:21.572Z,26.57
2023-04-18T14:51:23.678Z,27.69
2023-04-18T14:54:25.816Z,26.67
2023-04-18T14:57:30.292Z,26.00
2023-04-18T15:00:33.256Z,26.33
2023-04-18T15:03:35.310Z,25.81
2023-04-18T15:06:37.432Z,25.08
2023-04-18T15:09:39.434Z,24.15
2023-04-18T15:12:42.538Z,24.64
2023-04-18T15:15:50.876Z,23.64
2023-04-18T15:18:52.756Z,24.36
2023-04-18T15:21:54.568Z,25.11
2023-04-18T15:24:56.604Z,26.03
2023-04-18T15:27:58.773Z,25.86
2023-04-18T15:31:00.939Z,24.97
2023-04-18T15:34:02.753Z,25.31
2023-04-18T15:37:04.616Z,25.96
2023-04-18T15:40:09.284Z,26.21
2023-04-18T15:43:11.244Z,25.95
2023-04-18T15:46:13.768Z,26.30
2023-04-18T15:49:15.770Z,25.86
2023-04-18T15:52:17.832Z,26.74
2023-04-18T15:55:19.777Z,26.59
2023-04-18T15:58:22.176Z,27.09
2023-04-18T16:01:24.072Z,26.74
2023-04-18T16:04:26.190Z,27.49
2023-04-18T16:07:28.061Z,27.81
2023-04-18T16:10:29.896Z,27.75
2023-04-18T16:13:31.758Z,27.09
2023-04-18T16:16:34.486Z,28.39
2023-04-18T16:19:38.835Z,28.11
2023-04-18T16:22:40.671Z,28.67
2023-04-18T16:25:42.541Z,28.84
2023-04-18T16:28:44.475Z,28.02
2023-04-18T16:31:46.775Z,27.84
2023-04-18T16:34:48.886Z,27.93
2023-04-18T16:37:51.030Z,28.12
2023-04-18T16:41:00.577Z,28.02
2023-04-18T16:44:02.414Z,29.04
2023-04-18T16:47:06.077Z,28.68
2023-04-18T16:50:08.567Z,28.45
2023-04-18T16:53:10.422Z,27.67
2023-04-18T16:56:12.387Z,27.11
2023-04-18T16:59:14.323Z,28.23
2023-04-18T17:02:16.376Z,28.71
2023-04-18T17:05:18.974Z,29.32
2023-04-18T17:08:21.107Z,30.07
2023-04-18T17:11:23.372Z,28.98
2023-04-18T17:14:25.337Z,28.25
2023-04-18T17:17:27.234Z,30.03
2023-04-18T17:20:29.217Z,29.37
2023-04-18T17:23:32.813Z,29.32
2023-04-18T17:26:35.412Z,29.32
2023-04-18T17:29:37.363Z,28.56
2023-04-18T17:32:45.900Z,28.83
2023-04-18T17:35:48.278Z,28.15
2023-04-18T17:38:50.378Z,28.37
2023-04-18T17:41:52.660Z,28.15
2023-04-18T17:44:54.640Z,28.98
2023-04-18T17:47:58.287Z,28.70
2023-04-18T17:51:00.247Z,29.12
2023-04-18T17:54:02.288Z,28.21
2023-04-18T17:57:04.443Z,28.52
2023-04-18T18:00:10.522Z,27.83
2023-04-18T18:03:16.083Z,28.77
2023-04-18T18:06:18.033Z,28.69
2023-04-18T18:09:20.040Z,28.15
2023-04-18T18:12:21.893Z,28.23
2023-04-18T18:15:26.801Z,28.72
2023-04-18T18:18:29.889Z,29.14
2023-04-18T18:21:31.896Z,29.16
2023-04-18T18:24:33.949Z,29.16
2023-04-18T18:27:36.183Z,29.55
2023-04-18T18:30:38.263Z,29.26
2023-04-18T18:33:40.246Z,29.73
2023-04-18T18:36:42.115Z,29.99
2023-04-18T18:39:43.972Z,29.89
2023-04-18T18:42:46.142Z,30.12
2023-04-18T18:45:48.043Z,30.00
2023-04-18T18:48:49.998Z,31.73
2023-04-18T18:51:52.000Z,31.89
2023-04-18T18:54:54.988Z,32.21
2023-04-18T18:57:56.800Z,31.29
2023-04-18T19:01:02.278Z,31.35
2023-04-18T19:04:04.434Z,32.73
2023-04-18T19:07:07.374Z,33.74
2023-04-18T19:10:09.871Z,33.63
2023-04-18T19:13:11.718Z,33.62
2023-04-18T19:16:13.706Z,34.41
2023-04-18T19:19:17.436Z,34.92
2023-04-18T19:22:19.371Z,34.46
2023-04-18T19:25:21.253Z,34.48
2023-04-18T19:28:23.179Z,33.87
2023-04-18T19:31:24.999Z,34.03
2023-04-18T19:34:26.880Z,33.80
2023-04-18T19:37:28.892Z,33.43
2023-04-18T19:40:30.828Z,33.81
2023-04-18T19:43:32.837Z,33.81
2023-04-18T19:46:34.706Z,33.15
2023-04-18T19:49:36.580Z,32.21
2023-04-18T19:52:38.503Z,33.04
2023-04-18T19:55:40.818Z,32.58
2023-04-18T19:58:46.681Z,31.26
2023-04-18T20:01:48.700Z,33.33
2023-04-18T20:04:50.800Z,34.32
2023-04-18T20:07:52.971Z,35.14
2023-04-18T20:10:54.895Z,34.86
2023-04-18T20:13:56.844Z,35.64
2023-04-18T20:16:58.727Z,35.04
2023-04-18T20:20:00.798Z,35.06
2023-04-18T20:23:03.461Z,33.87
2023-04-18T20:26:05.561Z,33.22
2023-04-18T20:29:07.458Z,33.39
2023-04-18T20:32:11.218Z,34.61
2023-04-18T20:35:13.369Z,33.07
2023-04-18T20:38:15.414Z,33.00
2023-04-18T20:41:18.989Z,32.17
2023-04-18T20:44:20.998Z,32.45
2023-04-18T20:47:22.965Z,33.70
2023-04-18T20:50:24.826Z,33.55
2023-04-18T20:53:28.931Z,33.72
2023-04-18T20:56:30.950Z,34.47
2023-04-18T20:59:32.847Z,34.48
2023-04-18T21:02:34.781Z,33.89
2023-04-18T21:05:36.836Z,32.64
2023-04-18T21:08:39.391Z,32.45
2023-04-18T21:11:41.373Z,34.02
2023-04-18T21:14:43.218Z,34.84
2023-04-18T21:17:45.235Z,34.90
2023-04-18T21:20:47.129Z,36.33
2023-04-18T21:23:49.139Z,35.83
2023-04-18T21:26:50.972Z,34.32
2023-04-18T21:29:52.830Z,34.52
2023-04-18T21:32:54.780Z,34.06
2023-04-18T21:35:56.719Z,36.38
2023-04-18T21:38:59.418Z,35.32
2023-04-18T21:42:01.905Z,36.81
2023-04-18T21:45:04.237Z,37.38
2023-04-18T21:48:06.289Z,37.63
2023-04-18T21:51:13.043Z,37.36
2023-04-18T21:54:15.438Z,37.53
2023-04-18T21:57:17.571Z,37.43
2023-04-18T22:00:20.435Z,36.94
2023-04-18T22:03:26.569Z,36.87
2023-04-18T22:06:29.009Z,37.71
2023-04-18T22:09:31.476Z,37.05
2023-04-18T22:12:34.187Z,38.55
2023-04-18T22:15:39.421Z,38.76
2023-04-18T22:18:41.453Z,38.85
2023-04-18T22:21:43.283Z,38.30
2023-04-18T22:24:47.544Z,38.09
2023-04-18T22:27:49.855Z,38.15
2023-04-18T22:30:51.863Z,38.35
2023-04-18T22:33:53.730Z,37.57
2023-04-18T22:36:55.812Z,36.79
2023-04-18T22:39:57.743Z,37.09
2023-04-18T22:42:59.639Z,38.27
2023-04-18T22:46:01.461Z,38.38
2023-04-18T22:49:03.376Z,36.96
2023-04-18T22:52:06.310Z,37.51
2023-04-18T22:55:08.637Z,38.29
2023-04-18T22:58:10.830Z,36.56
2023-04-18T23:01:12.679Z,38.01
2023-04-18T23:04:14.901Z,37.58
2023-04-18T23:07:17.109Z,36.85
2023-04-18T23:10:19.028Z,37.56
2023-04-18T23:13:21.073Z,37.84
2023-04-18T23:16:23.225Z,38.04
2023-04-18T23:19:25.144Z,37.75
2023-04-18T23:22:27.045Z,36.38
2023-04-18T23:25:28.984Z,36.49
2023-04-18T23:28:30.960Z,36.18
2023-04-18T23:31:33.056Z,37.29
2023-04-18T23:34:34.997Z,37.92
2023-04-18T23:37:36.890Z,37.01
2023-04-18T23:40:38.784Z,36.50
2023-04-18T23:43:40.651Z,36.16
2023-04-18T23:46:42.527Z,36.66
2023-04-18T23:49:44.362Z,37.11
2023-04-18T23:52:46.470Z,36.28
2023-04-18T23:55:51.066Z,36.56
2023-04-18T23:58:54.077Z,37.60
